Time;durP1;ratioP1;P1;durP2;ratioP2;P2;SDS_P1;SDS_P2;PMS_P1;PMS_P2;Temp;Humidity;BMP_temperature;BMP_pressure;BME280_temperature;BME280_humidity;BME280_pressure;Samples;Min_cycle;Max_cycle;Signal;HPM_P1;HPM_P2
2023/11/25 00:00:54;;;;;;;;;;;3.10;99.90;;;2.22;100.00;97165.19;5023012;28;1668;-72
2023/11/25 00:03:21;;;;;;;;;;;3.20;99.90;;;2.27;100.00;97155.72;5001460;28;1716;-72
2023/11/25 00:05:49;;;;;;;;;;;3.20;99.90;;;2.34;100.00;97151.34;5006722;28;1517;-79
2023/11/25 00:08:16;;;;;;;;;;;3.20;99.90;;;2.20;100.00;97149.84;5021447;28;1527;-74
2023/11/25 00:10:44;;;;;;;;;;;3.20;99.90;;;2.22;100.00;97155.78;5019908;28;1676;-72
2023/11/25 00:13:11;;;;;;;;;;;3.20;99.90;;;2.16;100.00;97155.88;5021647;28;1396;-72
2023/11/25 00:15:38;;;;;;;;;;;3.10;99.90;;;2.30;100.00;97153.09;5026594;28;1910;-72
2023/11/25 00:18:06;;;;;;;;;;;3.00;99.90;;;2.26;100.00;97157.44;5024027;28;1685;-73
2023/11/25 00:20:36;;;;;;;;;;;3.10;99.90;;;2.40;100.00;97161.47;5025276;28;1474;-73
2023/11/25 00:23:04;;;;;;;;;;;3.20;99.90;;;2.04;100.00;97171.44;5007687;28;1473;-71
2023/11/25 00:25:31;;;;;;;;;;;3.10;99.90;;;2.00;100.00;97165.50;5025925;28;1572;-73
2023/11/25 00:27:58;;;;;;;;;;;3.10;99.90;;;1.94;100.00;97163.06;5024003;28;1473;-71
2023/11/25 00:30:25;;;;;;;;;;;3.00;99.90;;;2.04;100.00;97176.56;5022410;28;1678;-74
2023/11/25 00:32:52;;;;;;;;;;;3.00;99.90;;;1.95;100.00;97174.97;5023580;28;1491;-73
2023/11/25 00:35:19;;;;;;;;;;;3.00;99.90;;;2.04;100.00;97179.13;5021935;28;1914;-72
2023/11/25 00:37:46;;;;;;;;;;;3.00;99.90;;;1.90;100.00;97170.81;5024655;28;1571;-72
2023/11/25 00:40:15;;;;;;;;;;;2.90;99.90;;;1.92;100.00;97182.72;5005593;28;1707;-73
2023/11/25 00:42:42;;;;;;;;;;;3.00;99.90;;;2.05;100.00;97194.47;5021944;28;1739;-72
2023/11/25 00:45:09;;;;;;;;;;;2.80;99.90;;;1.94;100.00;97195.47;5003833;28;1435;-72
2023/11/25 00:47:40;;;;;;;;;;;2.90;99.90;;;1.86;100.00;97191.31;5005938;28;1546;-71
2023/11/25 00:50:08;;;;;;;;;;;2.80;99.90;;;1.80;100.00;97198.22;5022699;28;1487;-72
2023/11/25 00:52:36;;;;;;;;;;;2.80;99.90;;;1.88;100.00;97201.53;5022704;28;1908;-71
2023/11/25 00:55:05;;;;;;;;;;;2.80;99.90;;;1.88;100.00;97199.81;4986611;28;1934;-71
2023/11/25 00:57:32;;;;;;;;;;;2.90;99.90;;;1.93;100.00;97194.63;5023943;28;1520;-72
2023/11/25 00:59:59;;;;;;;;;;;3.00;99.90;;;1.77;100.00;97196.56;5023172;28;1335;-73
2023/11/25 01:02:27;;;;;;;;;;;2.80;99.90;;;1.73;100.00;97207.69;5025989;28;1466;-71
2023/11/25 01:04:55;;;;;;;;;;;2.80;99.90;;;1.64;100.00;97221.47;5021346;28;1560;-72
2023/11/25 01:07:22;;;;;;;;;;;2.70;99.90;;;1.64;100.00;97210.38;5022654;28;1504;-71
2023/11/25 01:09:49;;;;;;;;;;;2.70;99.90;;;1.58;100.00;97215.59;5008352;28;1573;-72
2023/11/25 01:12:16;;;;;;;;;;;2.70;99.90;;;1.57;100.00;97219.84;5020920;28;1536;-73
2023/11/25 01:14:43;;;;;;;;;;;2.70;99.90;;;1.50;100.00;97228.44;5025340;28;1907;-75
2023/11/25 01:17:10;;;;;;;;;;;2.70;99.90;;;1.51;100.00;97230.16;5021675;28;1644;-71
2023/11/25 01:19:37;;;;;;;;;;;2.60;99.90;;;1.53;100.00;97230.13;5023667;28;1696;-71
2023/11/25 01:22:05;;;;;;;;;;;2.50;99.90;;;1.41;100.00;97238.78;5021319;28;1466;-71
2023/11/25 01:24:32;;;;;;;;;;;2.50;99.90;;;1.33;100.00;97238.06;5007092;28;1683;-71
2023/11/25 01:26:59;;;;;;;;;;;2.40;99.90;;;1.33;100.00;97245.72;5023854;28;1566;-71
2023/11/25 01:29:26;;;;;;;;;;;2.40;99.90;;;1.31;100.00;97250.84;5003838;28;1533;-72
2023/11/25 01:31:53;;;;;;;;;;;2.40;99.90;;;1.23;100.00;97247.53;5020338;28;1540;-73
2023/11/25 01:34:20;;;;;;;;;;;2.40;99.90;;;1.36;100.00;97236.28;5021437;28;1918;-71
2023/11/25 01:36:47;;;;;;;;;;;2.30;99.90;;;1.21;100.00;97252.66;5023205;28;1524;-72
2023/11/25 01:39:14;;;;;;;;;;;2.30;99.90;;;1.23;100.00;97255.19;5020945;28;1571;-73
2023/11/25 01:41:43;;;;;;;;;;;2.30;99.90;;;1.22;100.00;97261.19;5022333;28;1801;-74
2023/11/25 01:44:12;;;;;;;;;;;2.20;99.90;;;1.23;100.00;97262.84;5022092;28;1772;-72
2023/11/25 01:46:42;;;;;;;;;;;2.30;99.90;;;1.24;100.00;97267.97;5004806;28;1550;-70
2023/11/25 01:49:15;;;;;;;;;;;2.30;99.90;;;1.22;100.00;97268.84;4994142;28;1492;-73
2023/11/25 01:51:44;;;;;;;;;;;2.40;99.90;;;1.32;100.00;97278.09;5006342;28;1537;-71
2023/11/25 01:54:13;;;;;;;;;;;2.40;99.90;;;1.39;100.00;97273.78;5004173;28;1900;-71
2023/11/25 01:56:41;;;;;;;;;;;2.40;99.90;;;1.45;100.00;97289.91;5020633;28;2000;-74
2023/11/25 01:59:11;;;;;;;;;;;2.40;99.90;;;1.57;100.00;97278.66;5022245;28;1551;-71
2023/11/25 02:01:38;;;;;;;;;;;2.50;99.90;;;1.57;100.00;97280.38;5007225;28;1794;-72
2023/11/25 02:04:07;;;;;;;;;;;2.60;99.90;;;1.61;100.00;97287.16;5023442;28;1307;-73
2023/11/25 02:06:34;;;;;;;;;;;2.60;99.90;;;1.54;100.00;97278.72;5020879;28;1488;-71
2023/11/25 02:09:03;;;;;;;;;;;2.60;99.90;;;1.34;100.00;97275.53;5022607;28;1383;-71
2023/11/25 02:11:30;;;;;;;;;;;2.50;99.90;;;1.29;100.00;97280.69;5024561;28;1371;-73
2023/11/25 02:13:56;;;;;;;;;;;2.40;99.90;;;1.34;100.00;97272.97;5022084;28;1899;-71
2023/11/25 02:16:23;;;;;;;;;;;2.40;99.90;;;1.19;100.00;97276.56;5022220;28;1564;-71
2023/11/25 02:18:51;;;;;;;;;;;2.30;99.90;;;1.21;100.00;97273.13;5003426;28;1491;-72
2023/11/25 02:21:19;;;;;;;;;;;2.20;99.90;;;1.11;100.00;97281.72;5020751;28;1669;-72
2023/11/25 02:23:47;;;;;;;;;;;2.30;99.90;;;1.10;100.00;97285.16;5007609;28;1538;-71
2023/11/25 02:26:14;;;;;;;;;;;2.20;99.90;;;1.08;100.00;97286.88;5004991;28;1525;-73
2023/11/25 02:28:41;;;;;;;;;;;2.20;99.90;;;1.06;100.00;97286.03;5020580;28;1502;-71
2023/11/25 02:31:08;;;;;;;;;;;2.30;99.90;;;1.10;100.00;97285.16;5021309;28;1568;-71
2023/11/25 02:33:35;;;;;;;;;;;2.20;99.90;;;1.00;100.00;97286.09;5019033;28;2285;-72
2023/11/25 02:36:03;;;;;;;;;;;2.20;99.90;;;1.03;100.00;97296.31;5022205;28;1894;-71
2023/11/25 02:38:30;;;;;;;;;;;2.10;99.90;;;0.92;100.00;97304.06;5021125;28;1687;-71
2023/11/25 02:40:57;;;;;;;;;;;2.10;99.90;;;0.89;100.00;97306.66;5024108;28;1500;-71
2023/11/25 02:43:26;;;;;;;;;;;2.00;99.90;;;0.92;100.00;97298.94;5021265;28;1524;-71
2023/11/25 02:45:53;;;;;;;;;;;2.10;99.90;;;0.86;100.00;97309.22;5004173;28;1592;-71
2023/11/25 02:48:20;;;;;;;;;;;2.00;99.90;;;0.82;100.00;97307.53;5005770;28;1564;-71
2023/11/25 02:50:48;;;;;;;;;;;2.00;99.90;;;0.90;100.00;97315.16;5019411;28;1551;-72
2023/11/25 02:53:15;;;;;;;;;;;2.00;99.90;;;0.85;100.00;97316.91;5020307;28;1559;-72
2023/11/25 02:55:43;;;;;;;;;;;2.00;99.90;;;0.82;100.00;97321.19;5019854;28;1985;-74
2023/11/25 02:58:11;;;;;;;;;;;2.00;99.90;;;0.87;100.00;97312.63;5020838;28;1568;-75
2023/11/25 03:00:41;;;;;;;;;;;2.00;99.90;;;0.84;100.00;97321.16;5012038;28;1585;-72
2023/11/25 03:03:12;;;;;;;;;;;2.00;99.90;;;0.81;100.00;97323.75;5019441;28;1374;-72
2023/11/25 03:05:47;;;;;;;;;;;2.00;99.90;;;0.76;100.00;97322.94;5007368;28;1356;-73
2023/11/25 03:08:16;;;;;;;;;;;2.00;99.90;;;0.71;100.00;97325.53;5006014;28;1344;-74
2023/11/25 03:10:46;;;;;;;;;;;1.90;99.90;;;0.72;100.00;97324.66;5019873;28;1698;-73
2023/11/25 03:13:13;;;;;;;;;;;1.90;99.90;;;0.77;100.00;97317.81;5021964;28;1070;-75
2023/11/25 03:15:41;;;;;;;;;;;1.90;99.90;;;0.74;100.00;97320.38;5023051;28;1906;-72
2023/11/25 03:18:09;;;;;;;;;;;1.90;99.90;;;0.68;100.00;97322.13;5001346;28;1629;-72
2023/11/25 03:20:36;;;;;;;;;;;1.90;99.90;;;0.75;100.00;97326.34;5019783;28;1533;-72
2023/11/25 03:23:04;;;;;;;;;;;1.90;99.90;;;0.59;100.00;97329.03;5004642;28;1762;-71
2023/11/25 03:25:31;;;;;;;;;;;1.90;99.90;;;0.62;100.00;97331.56;5020904;28;1564;-75
2023/11/25 03:27:58;;;;;;;;;;;1.80;99.90;;;0.49;100.00;97337.59;5019624;28;1516;-71
2023/11/25 03:30:26;;;;;;;;;;;1.80;99.90;;;0.55;100.00;97342.69;5021455;28;1489;-74
2023/11/25 03:32:53;;;;;;;;;;;1.70;99.90;;;0.45;100.00;97343.56;5008296;28;1502;-72
2023/11/25 03:35:21;;;;;;;;;;;1.70;99.90;;;0.45;100.00;97347.84;5019301;28;1910;-73
2023/11/25 03:37:48;;;;;;;;;;;1.70;99.90;;;0.44;100.00;97357.22;5016933;28;1545;-71
2023/11/25 03:40:15;;;;;;;;;;;1.60;99.90;;;0.37;100.00;97358.13;5018516;28;1500;-72
2023/11/25 03:42:44;;;;;;;;;;;1.60;99.90;;;0.37;100.00;97355.56;5009078;28;1441;-71
2023/11/25 03:45:12;;;;;;;;;;;1.60;99.90;;;0.09;100.00;97357.38;4991194;28;1515;-74
2023/11/25 03:47:40;;;;;;;;;;;1.50;99.90;;;0.07;100.00;97357.41;5004324;28;1573;-72
2023/11/25 03:50:08;;;;;;;;;;;1.40;99.90;;;0.21;100.00;97359.91;5020699;28;1770;-71
2023/11/25 03:52:35;;;;;;;;;;;1.30;99.90;;;0.07;100.00;97365.06;5008073;28;1507;-72
2023/11/25 03:55:03;;;;;;;;;;;1.20;99.90;;;0.04;100.00;97371.88;5018541;28;1917;-75
2023/11/25 03:57:29;;;;;;;;;;;1.10;99.90;;;0.03;100.00;97371.03;5018255;28;1400;-71
2023/11/25 03:59:56;;;;;;;;;;;1.00;99.90;;;0.08;100.00;97373.56;5021549;28;1480;-72
2023/11/25 04:02:24;;;;;;;;;;;1.00;99.90;;;0.11;100.00;97373.53;5020535;28;1409;-73
2023/11/25 04:04:51;;;;;;;;;;;1.10;99.90;;;0.18;100.00;97376.09;5020719;28;1378;-72
2023/11/25 04:07:18;;;;;;;;;;;1.10;99.90;;;0.24;100.00;97374.34;5022710;28;1023;-71
2023/11/25 04:09:45;;;;;;;;;;;1.20;99.90;;;0.36;100.00;97375.13;5018982;28;1356;-73
2023/11/25 04:12:12;;;;;;;;;;;1.20;99.90;;;0.37;100.00;97375.97;5019943;28;1312;-73
2023/11/25 04:14:39;;;;;;;;;;;1.30;99.90;;;0.32;100.00;97378.56;5023579;28;1902;-71
2023/11/25 04:17:05;;;;;;;;;;;1.30;99.90;;;0.31;100.00;97383.66;5021047;28;1355;-72
2023/11/25 04:19:35;;;;;;;;;;;1.20;99.90;;;0.28;100.00;97379.44;5017377;28;1471;-71
2023/11/25 04:22:03;;;;;;;;;;;1.10;99.90;;;0.13;100.00;97376.94;5019455;28;1399;-73
2023/11/25 04:24:30;;;;;;;;;;;1.10;99.90;;;0.07;100.00;97371.84;5021566;28;1383;-72
2023/11/25 04:27:01;;;;;;;;;;;1.10;99.90;;;0.13;100.00;97377.78;5020283;28;1401;-71
2023/11/25 04:29:28;;;;;;;;;;;1.20;99.90;;;0.04;100.00;97382.09;5019271;28;1346;-72
2023/11/25 04:31:55;;;;;;;;;;;1.20;99.90;;;0.04;100.00;97371.88;5020909;28;1445;-72
2023/11/25 04:34:22;;;;;;;;;;;1.20;99.90;;;0.06;100.00;97371.00;5016857;28;1466;-72
2023/11/25 04:36:50;;;;;;;;;;;1.30;99.90;;;-0.14;100.00;97377.91;5018962;28;1903;-71
2023/11/25 04:39:17;;;;;;;;;;;1.20;99.90;;;-0.06;100.00;97382.13;5021943;28;1718;-72
2023/11/25 04:41:45;;;;;;;;;;;1.20;99.90;;;0.00;100.00;97378.72;5003042;28;1497;-74
2023/11/25 04:44:12;;;;;;;;;;;1.20;99.90;;;-0.11;100.00;97388.09;5004857;28;1403;-71
2023/11/25 04:46:40;;;;;;;;;;;1.10;99.90;;;-0.09;100.00;97386.38;5001893;28;1466;-71
2023/11/25 04:49:07;;;;;;;;;;;1.10;99.90;;;-0.02;100.00;97390.63;5016014;28;1413;-72
2023/11/25 04:51:34;;;;;;;;;;;1.20;99.90;;;0.06;100.00;97391.44;5019919;28;1477;-72
2023/11/25 04:54:01;;;;;;;;;;;1.10;99.90;;;-0.18;100.00;97389.81;5021090;28;1386;-71
2023/11/25 04:56:28;;;;;;;;;;;1.10;99.90;;;-0.29;100.00;97387.31;5020638;28;1973;-71
2023/11/25 04:58:56;;;;;;;;;;;;;;;-0.20;100.00;97390.69;5020451;28;1367;-73
2023/11/25 05:01:23;;;;;;;;;;;0.90;99.90;;;-0.24;100.00;97393.22;5024961;28;1331;-73
2023/11/25 05:03:52;;;;;;;;;;;0.80;99.90;;;-0.27;100.00;97389.84;5006376;28;1527;-73
2023/11/25 05:06:19;;;;;;;;;;;0.80;99.90;;;-0.36;100.00;97390.72;5023231;28;1502;-72
2023/11/25 05:08:46;;;;;;;;;;;0.80;99.90;;;-0.54;100.00;97396.69;4992805;28;1427;-72
2023/11/25 05:11:13;;;;;;;;;;;0.70;99.90;;;-0.54;100.00;97406.91;5014741;28;1367;-72
2023/11/25 05:13:39;;;;;;;;;;;0.70;99.90;;;-0.48;100.00;97406.91;5021451;28;1402;-71
2023/11/25 05:16:07;;;;;;;;;;;0.70;99.90;;;-0.69;100.00;97405.19;5023105;28;1902;-71
2023/11/25 05:18:34;;;;;;;;;;;0.70;99.90;;;-0.72;100.00;97405.22;4992613;28;1457;-71
2023/11/25 05:21:02;;;;;;;;;;;0.60;99.90;;;-0.67;100.00;97408.59;5020127;28;1722;-72
2023/11/25 05:23:29;;;;;;;;;;;0.70;99.90;;;-0.66;100.00;97409.47;5003144;28;1710;-72
2023/11/25 05:25:56;;;;;;;;;;;0.60;99.90;;;-0.82;100.00;97411.19;5023817;28;1374;-72
2023/11/25 05:28:23;;;;;;;;;;;0.60;99.90;;;-0.73;100.00;97413.72;5020667;28;1512;-72
2023/11/25 05:30:51;;;;;;;;;;;0.50;99.90;;;-0.71;100.00;97427.31;5024197;28;1400;-73
2023/11/25 05:33:18;;;;;;;;;;;0.50;99.90;;;-0.67;100.00;97434.09;5022873;28;1358;-71
2023/11/25 05:35:47;;;;;;;;;;;0.50;99.90;;;-0.87;100.00;97433.25;5023259;28;2003;-72
2023/11/25 05:38:15;;;;;;;;;;;0.50;99.90;;;-0.68;100.00;97440.06;5022581;28;1363;-71
2023/11/25 05:40:46;;;;;;;;;;;0.50;99.90;;;-0.64;100.00;97445.97;5022404;28;1300;-74
2023/11/25 05:43:13;;;;;;;;;;;0.50;99.90;;;-0.69;100.00;97437.50;5021517;28;1600;-71
2023/11/25 05:45:42;;;;;;;;;;;0.50;99.90;;;-0.64;100.00;97445.97;5021512;28;1601;-77
2023/11/25 05:48:09;;;;;;;;;;;0.60;99.90;;;-0.67;100.00;97444.28;5020396;28;1484;-71
2023/11/25 05:50:36;;;;;;;;;;;0.60;99.90;;;-0.73;100.00;97436.66;5022003;28;1679;-71
2023/11/25 05:53:03;;;;;;;;;;;0.60;99.90;;;-0.66;100.00;97452.81;5022493;28;1415;-71
2023/11/25 05:55:30;;;;;;;;;;;0.60;99.90;;;-0.65;100.00;97452.78;5003264;28;1915;-72
2023/11/25 05:57:57;;;;;;;;;;;0.50;99.90;;;-0.72;100.00;97451.09;5002982;28;1399;-72
2023/11/25 06:00:26;;;;;;;;;;;0.40;99.90;;;-0.64;100.00;97449.41;4990287;28;1503;-75
2023/11/25 06:02:53;;;;;;;;;;;0.40;99.90;;;-0.85;100.00;97445.13;5020405;28;1614;-71
2023/11/25 06:05:20;;;;;;;;;;;0.40;99.90;;;-0.72;100.00;97452.81;5022359;28;1371;-71
2023/11/25 06:07:48;;;;;;;;;;;0.40;99.90;;;-0.78;100.00;97445.16;5002925;28;1435;-72
2023/11/25 06:10:15;;;;;;;;;;;0.50;99.90;;;-0.64;100.00;97445.97;5021752;28;1449;-74
2023/11/25 06:12:42;;;;;;;;;;;0.50;99.90;;;-0.67;100.00;97443.44;5003199;28;1600;-74
2023/11/25 06:15:09;;;;;;;;;;;0.50;99.90;;;-0.67;100.00;97446.84;5005307;28;1902;-72
2023/11/25 06:17:37;;;;;;;;;;;0.50;99.90;;;-0.61;100.00;97452.81;4985387;28;1421;-71
2023/11/25 06:20:04;;;;;;;;;;;0.50;99.90;;;-0.72;100.00;97447.69;5023119;28;1356;-71
2023/11/25 06:22:31;;;;;;;;;;;0.50;99.90;;;-0.73;100.00;97446.84;5020403;28;1419;-71
2023/11/25 06:25:00;;;;;;;;;;;0.50;99.90;;;-0.73;100.00;97445.97;5004764;28;1346;-71
2023/11/25 06:27:27;;;;;;;;;;;0.60;99.90;;;-0.56;100.00;97451.09;5021284;28;1364;-74
2023/11/25 06:29:54;;;;;;;;;;;0.60;99.90;;;-0.67;100.00;97449.38;5008579;28;1504;-72
2023/11/25 06:32:21;;;;;;;;;;;0.60;99.90;;;-0.65;100.00;97450.25;5022119;28;1458;-72
2023/11/25 06:34:48;;;;;;;;;;;0.60;99.90;;;-0.53;100.00;97445.97;5020540;28;1367;-72
2023/11/25 06:37:15;;;;;;;;;;;0.60;99.90;;;-0.57;100.00;97452.81;5019814;28;1930;-72
2023/11/25 06:39:42;;;;;;;;;;;0.60;99.90;;;-0.36;100.00;97454.47;5016462;28;1536;-72
2023/11/25 06:42:09;;;;;;;;;;;0.60;99.90;;;-0.35;100.00;97455.31;4992353;28;1458;-71
2023/11/25 06:44:36;;;;;;;;;;;0.70;99.90;;;-0.41;100.00;97461.28;5021610;28;1315;-71
2023/11/25 06:47:03;;;;;;;;;;;0.70;99.90;;;-0.39;100.00;97449.38;5021453;28;1330;-72
2023/11/25 06:49:35;;;;;;;;;;;0.70;99.90;;;-0.44;100.00;97446.81;5018181;28;1413;-73
2023/11/25 06:52:03;;;;;;;;;;;0.80;99.90;;;-0.46;100.00;97445.13;5017741;28;1409;-71
2023/11/25 06:54:31;;;;;;;;;;;0.80;99.90;;;-0.46;100.00;97440.91;5015357;28;1502;-73
2023/11/25 06:56:58;;;;;;;;;;;0.80;99.90;;;-0.34;100.00;97446.81;5021135;28;1902;-71
2023/11/25 06:59:26;;;;;;;;;;;0.80;99.90;;;-0.25;100.00;97459.53;5018097;28;1401;-71
2023/11/25 07:01:54;;;;;;;;;;;0.70;99.90;;;-0.24;100.00;97456.16;5024829;28;1813;-72
2023/11/25 07:04:21;;;;;;;;;;;0.70;99.90;;;-0.28;100.00;97462.09;5020947;28;1390;-72
2023/11/25 07:06:49;;;;;;;;;;;0.70;99.90;;;-0.34;100.00;97465.53;5017542;28;1339;-71
2023/11/25 07:09:18;;;;;;;;;;;0.80;99.90;;;-0.28;100.00;97474.84;5020438;28;1876;-72
2023/11/25 07:11:48;;;;;;;;;;;0.80;99.90;;;-0.20;100.00;97468.06;5020440;28;1455;-71
2023/11/25 07:14:15;;;;;;;;;;;0.80;99.90;;;-0.23;100.00;97471.47;5004549;28;1870;-71
2023/11/25 07:16:45;;;;;;;;;;;0.90;99.90;;;-0.09;100.00;97465.47;5019662;28;1907;-71
2023/11/25 07:19:12;;;;;;;;;;;0.80;99.90;;;-0.11;100.00;97465.50;5020424;28;1382;-71
2023/11/25 07:21:39;;;;;;;;;;;0.80;99.90;;;-0.12;100.00;97473.13;5001004;28;1647;-72
2023/11/25 07:24:08;;;;;;;;;;;0.90;99.90;;;-0.10;100.00;97464.63;5018393;28;1791;-71
2023/11/25 07:26:42;;;;;;;;;;;0.90;99.90;;;-0.01;100.00;97468.84;5014630;28;1468;-71
2023/11/25 07:29:13;;;;;;;;;;;1.10;99.90;;;-0.04;100.00;97461.22;5017776;28;1414;-72
2023/11/25 07:31:40;;;;;;;;;;;1.10;99.90;;;-0.04;100.00;97464.63;5018943;28;1348;-71
2023/11/25 07:34:08;;;;;;;;;;;1.10;99.90;;;0.19;100.00;97466.25;5003698;28;1363;-72
2023/11/25 07:36:35;;;;;;;;;;;1.20;99.90;;;0.28;100.00;97468.78;5020644;28;1977;-73
2023/11/25 07:39:04;;;;;;;;;;;1.20;99.90;;;0.22;100.00;97473.06;5019499;28;1423;-71
2023/11/25 07:41:31;;;;;;;;;;;1.30;99.90;;;0.36;100.00;97472.13;5018382;28;1502;-73
2023/11/25 07:43:58;;;;;;;;;;;1.30;99.90;;;0.36;100.00;97476.41;5021763;28;1264;-71
2023/11/25 07:46:25;;;;;;;;;;;1.30;99.90;;;0.31;100.00;97458.53;4996770;28;1259;-71
2023/11/25 07:48:53;;;;;;;;;;;1.40;99.90;;;0.40;100.00;97486.59;5019150;28;1439;-71
2023/11/25 07:51:19;;;;;;;;;;;1.30;99.90;;;0.57;100.00;97486.53;5020854;28;1402;-74
2023/11/25 07:53:46;;;;;;;;;;;1.30;99.90;;;0.39;100.00;97471.31;5001246;28;1354;-71
2023/11/25 07:56:13;;;;;;;;;;;1.30;99.90;;;0.56;100.00;97495.03;5009905;28;1918;-71
2023/11/25 07:58:40;;;;;;;;;;;1.30;99.90;;;0.40;100.00;97485.75;5020128;28;1376;-73
2023/11/25 08:01:07;;;;;;;;;;;1.30;99.90;;;0.43;100.00;97477.22;5021508;28;1704;-71
2023/11/25 08:03:34;;;;;;;;;;;1.30;99.90;;;0.59;100.00;97489.06;5017541;28;1716;-73
2023/11/25 08:06:01;;;;;;;;;;;1.40;99.90;;;0.68;100.00;97490.72;5019038;28;1391;-73
2023/11/25 08:08:28;;;;;;;;;;;1.40;99.90;;;0.70;100.00;97492.44;5003811;28;1423;-72
2023/11/25 08:10:56;;;;;;;;;;;1.50;99.90;;;0.71;100.00;97501.81;5022119;28;1347;-73
2023/11/25 08:13:23;;;;;;;;;;;1.60;99.90;;;0.79;100.00;97504.31;5020876;28;1356;-71
2023/11/25 08:15:50;;;;;;;;;;;1.60;99.90;;;0.97;100.00;97495.69;5021363;28;1981;-73
2023/11/25 08:18:18;;;;;;;;;;;1.70;99.90;;;0.78;100.00;97485.59;5001626;28;1377;-74
2023/11/25 08:20:46;;;;;;;;;;;1.80;99.90;;;0.98;100.00;97482.03;5017174;28;1378;-71
2023/11/25 08:23:13;;;;;;;;;;;1.80;99.90;;;0.99;100.00;97486.31;5017726;28;1236;-73
2023/11/25 08:25:40;;;;;;;;;;;1.80;99.90;;;0.90;100.00;97478.72;5018404;28;1220;-72
2023/11/25 08:28:07;;;;;;;;;;;1.80;99.90;;;1.10;100.00;97479.44;5023099;28;1241;-72
2023/11/25 08:30:35;;;;;;;;;;;1.80;99.90;;;1.16;100.00;97475.97;5020978;28;1432;-72
2023/11/25 08:33:01;;;;;;;;;;;1.80;99.90;;;1.22;100.00;97487.00;5020866;28;1450;-71
2023/11/25 08:35:29;;;;;;;;;;;1.90;99.90;;;1.11;100.00;97478.56;5009153;28;1715;-73
2023/11/25 08:37:57;;;;;;;;;;;1.90;99.90;;;1.25;100.00;97475.91;5023198;28;1981;-72
2023/11/25 08:40:23;;;;;;;;;;;1.90;99.90;;;1.17;100.00;97478.53;5019336;28;1264;-72
2023/11/25 08:42:50;;;;;;;;;;;1.90;99.90;;;1.24;100.00;97469.94;5021956;28;1841;-73
2023/11/25 08:45:19;;;;;;;;;;;2.00;99.90;;;1.23;100.00;97488.72;5021753;28;1533;-72
2023/11/25 08:47:46;;;;;;;;;;;2.00;99.90;;;1.14;100.00;97476.00;5023393;28;1396;-72
2023/11/25 08:50:15;;;;;;;;;;;2.10;99.90;;;1.15;100.00;97477.69;5010329;28;1464;-72
2023/11/25 08:52:44;;;;;;;;;;;2.10;99.90;;;1.42;100.00;97475.78;5006522;28;1411;-71
2023/11/25 08:55:17;;;;;;;;;;;2.10;99.90;;;1.20;100.00;97473.38;5021510;28;1308;-72
2023/11/25 08:57:43;;;;;;;;;;;2.20;99.90;;;1.39;100.00;97463.00;5017464;28;2009;-71
2023/11/25 09:00:20;;;;;;;;;;;2.20;99.90;;;1.56;100.00;97470.56;5008651;28;1118;-74
2023/11/25 09:02:50;;;;;;;;;;;2.30;99.90;;;1.41;100.00;97463.84;5022220;28;1571;-73
2023/11/25 09:05:22;;;;;;;;;;;2.30;99.90;;;1.55;100.00;97454.38;5004397;28;1400;-73
2023/11/25 09:07:51;;;;;;;;;;;2.30;99.90;;;1.58;100.00;97458.63;5020720;28;1508;-73
2023/11/25 09:10:18;;;;;;;;;;;2.40;99.90;;;1.74;100.00;97467.84;5017789;28;1579;-71
2023/11/25 09:12:45;;;;;;;;;;;2.40;99.90;;;1.79;100.00;97478.03;5021861;28;1426;-74
2023/11/25 09:15:13;;;;;;;;;;;2.40;99.90;;;1.56;100.00;97475.69;5017033;28;1438;-75
2023/11/25 09:17:41;;;;;;;;;;;2.40;99.90;;;1.69;100.00;97469.59;5022651;28;1973;-71
2023/11/25 09:20:11;;;;;;;;;;;2.40;99.90;;;1.60;100.00;97487.59;5004849;28;1608;-71
2023/11/25 09:22:39;;;;;;;;;;;2.50;99.90;;;1.53;100.00;97466.31;5025276;28;1573;-71
2023/11/25 09:25:09;;;;;;;;;;;2.60;99.90;;;1.75;100.00;97487.44;5022015;28;1404;-71
2023/11/25 09:27:38;;;;;;;;;;;2.60;99.90;;;1.81;100.00;97472.03;5024844;28;1551;-72
2023/11/25 09:30:10;;;;;;;;;;;2.70;99.90;;;1.97;100.00;97493.22;5010285;28;1392;-74
2023/11/25 09:32:39;;;;;;;;;;;2.70;99.90;;;1.76;100.00;97489.16;5018680;28;1398;-73
2023/11/25 09:35:07;;;;;;;;;;;2.70;99.90;;;1.71;100.00;97492.59;4989241;28;1439;-73
2023/11/25 09:37:34;;;;;;;;;;;2.60;99.90;;;1.65;100.00;97499.47;5009406;28;1938;-71
2023/11/25 09:40:06;;;;;;;;;;;2.60;99.90;;;1.81;100.00;97495.06;5002724;28;1770;-72
2023/11/25 09:42:34;;;;;;;;;;;2.60;99.90;;;1.79;100.00;97484.00;4994169;28;1508;-72
2023/11/25 09:45:01;;;;;;;;;;;2.60;99.90;;;1.74;100.00;97490.88;5006101;28;1276;-72
2023/11/25 09:47:28;;;;;;;;;;;2.70;99.90;;;1.95;100.00;97479.56;5021666;28;1533;-71
2023/11/25 09:49:55;;;;;;;;;;;2.80;99.90;;;1.93;100.00;97477.91;4993479;28;1442;-72
2023/11/25 09:52:23;;;;;;;;;;;2.80;99.90;;;2.37;100.00;97495.34;5021782;28;1392;-71
2023/11/25 09:54:55;;;;;;;;;;;2.90;99.90;;;2.29;100.00;97487.75;5006991;28;1503;-73
2023/11/25 09:57:23;;;;;;;;;;;2.90;99.90;;;2.17;100.00;97495.56;5001850;28;1997;-72
2023/11/25 09:59:50;;;;;;;;;;;3.00;99.90;;;2.13;100.00;97467.47;5004971;28;1192;-72
2023/11/25 10:02:17;;;;;;;;;;;2.90;99.90;;;2.12;100.00;97468.31;5020499;28;1396;-72
2023/11/25 10:04:46;;;;;;;;;;;2.90;99.90;;;2.13;100.00;97472.59;5014164;28;1384;-72
2023/11/25 10:07:16;;;;;;;;;;;2.80;99.90;;;1.95;100.00;97453.13;4992525;28;1457;-71
2023/11/25 10:09:42;;;;;;;;;;;2.90;99.90;;;2.22;100.00;97459.69;5021975;28;1348;-76
2023/11/25 10:12:09;;;;;;;;;;;2.70;99.90;;;2.18;100.00;97463.97;5022263;28;1364;-72
2023/11/25 10:14:39;;;;;;;;;;;2.80;99.90;;;2.22;100.00;97444.31;5020306;28;1380;-71
2023/11/25 10:17:21;;;;;;;;;;;2.90;99.90;;;2.12;100.00;97455.50;5009028;28;1906;-72
2023/11/25 10:19:48;;;;;;;;;;;2.80;99.90;;;2.00;100.00;97459.88;5012098;28;1463;-72
2023/11/25 10:22:19;;;;;;;;;;;2.90;99.90;;;2.24;100.00;97443.44;5021176;28;1367;-71
2023/11/25 10:24:49;;;;;;;;;;;2.80;99.90;;;2.22;100.00;97450.28;5018837;28;1457;-72
2023/11/25 10:27:17;;;;;;;;;;;2.80;99.90;;;2.24;100.00;97445.97;5019969;28;1403;-72
2023/11/25 10:29:45;;;;;;;;;;;2.90;99.90;;;2.33;100.00;97462.09;5020571;28;1419;-74
2023/11/25 10:32:12;;;;;;;;;;;2.90;99.90;;;2.16;100.00;97444.38;5020090;28;1331;-72
2023/11/25 10:34:39;;;;;;;;;;;3.00;99.90;;;2.36;100.00;97449.28;5021938;28;1392;-71
2023/11/25 10:37:08;;;;;;;;;;;3.00;99.90;;;2.37;100.00;97444.09;5016326;28;1899;-76
2023/11/25 10:39:36;;;;;;;;;;;3.00;99.90;;;2.35;100.00;97435.63;5019828;28;1479;-72
2023/11/25 10:42:07;;;;;;;;;;;3.10;99.90;;;2.45;100.00;97437.19;5003660;28;1660;-72
2023/11/25 10:44:35;;;;;;;;;;;3.10;99.90;;;2.20;100.00;97446.88;5008908;28;1404;-71
2023/11/25 10:47:04;;;;;;;;;;;3.00;99.90;;;2.17;100.00;97434.13;5014176;28;1702;-72
2023/11/25 10:49:31;;;;;;;;;;;3.00;99.90;;;1.99;100.00;97447.13;5013784;28;1392;-72
2023/11/25 10:52:02;;;;;;;;;;;3.10;99.90;;;2.17;100.00;97433.28;5003062;28;1559;-72
2023/11/25 10:54:31;;;;;;;;;;;3.10;99.90;;;2.23;100.00;97421.22;5020479;28;1431;-71
2023/11/25 10:57:05;;;;;;;;;;;3.10;99.90;;;2.34;100.00;97417.69;5006950;28;2070;-74
2023/11/25 10:59:32;;;;;;;;;;;3.10;99.90;;;2.48;100.00;97421.75;4988127;28;1228;-72
2023/11/25 11:02:02;;;;;;;;;;;3.00;99.90;;;2.43;100.00;97415.03;5006197;28;1444;-71
2023/11/25 11:04:41;;;;;;;;;;;3.00;99.90;;;2.51;100.00;97398.69;5015824;28;1570;-71
2023/11/25 11:07:14;;;;;;;;;;;3.00;99.90;;;2.35;100.00;97397.19;5002673;28;1385;-71
2023/11/25 11:09:46;;;;;;;;;;;3.00;99.90;;;2.43;100.00;97379.16;5006334;28;1462;-71
2023/11/25 11:12:19;;;;;;;;;;;3.10;99.90;;;2.42;100.00;97388.56;5019454;28;1422;-71
2023/11/25 11:14:58;;;;;;;;;;;3.10;99.90;;;2.49;100.00;97368.84;5005065;28;1373;-71
2023/11/25 11:17:32;;;;;;;;;;;3.10;99.90;;;2.50;100.00;97381.59;5004964;28;1989;-71
2023/11/25 11:20:01;;;;;;;;;;;3.10;99.90;;;2.44;100.00;97383.41;5022567;28;1450;-71
2023/11/25 11:22:28;;;;;;;;;;;3.20;99.90;;;2.51;100.00;97374.78;5006370;28;1664;-73
2023/11/25 11:25:10;;;;;;;;;;;3.20;99.90;;;2.61;100.00;97383.19;5007440;28;1201;-72
2023/11/25 11:27:56;;;;;;;;;;;3.20;99.90;;;2.47;100.00;97378.25;5006483;28;1484;-71
2023/11/25 11:31:00;;;;;;;;;;;3.30;99.90;;;2.53;100.00;97382.44;5005158;28;1177;-71
2023/11/25 11:33:27;;;;;;;;;;;3.20;99.90;;;2.32;100.00;97374.16;5019540;28;1216;-70
2023/11/25 11:35:53;;;;;;;;;;;3.20;99.90;;;2.45;100.00;97385.94;5002682;28;1437;-70